Time;durP1;ratioP1;P1;durP2;ratioP2;P2;SDS_P1;SDS_P2;PMS_P1;PMS_P2;Temp;Humidity;BMP_temperature;BMP_pressure;BME280_temperature;BME280_humidity;BME280_pressure;Samples;Min_cycle;Max_cycle;Signal;HPM_P1;HPM_P2
2023/12/10 00:03:16;;;;;;;10.60;2.53;;;;;;;18.41;41.35;99933.06;16110077;19;129918;-49
2023/12/10 00:08:38;;;;;;;13.40;2.88;;;;;;;18.41;41.44;99933.06;16112647;19;130212;-45
2023/12/10 00:14:01;;;;;;;10.20;2.75;;;;;;;18.38;41.23;99939.09;16112418;19;132145;-46
2023/12/10 00:19:23;;;;;;;12.98;2.90;;;;;;;18.36;41.55;99935.75;16111259;19;130762;-51
2023/12/10 00:24:45;;;;;;;11.18;2.90;;;;;;;18.33;41.34;99950.16;16114315;19;129966;-47
2023/12/10 00:30:08;;;;;;;12.63;2.92;;;;;;;18.31;41.12;99949.59;16105810;19;130774;-48
2023/12/10 00:35:30;;;;;;;10.32;2.85;;;;;;;18.29;41.18;99962.84;16107191;19;129662;-46
2023/12/10 00:40:52;;;;;;;12.57;3.15;;;;;;;18.27;41.15;99970.59;16112410;19;131416;-47
2023/12/10 00:46:15;;;;;;;10.82;2.67;;;;;;;18.24;41.45;99962.81;16112381;19;130853;-52
2023/12/10 00:51:37;;;;;;;8.55;2.40;;;;;;;18.22;41.39;99976.09;16099257;19;131853;-46
2023/12/10 00:57:00;;;;;;;9.55;3.25;;;;;;;18.21;41.31;99988.28;16098126;19;130297;-47
2023/12/10 01:02:22;;;;;;;9.48;2.60;;;;;;;18.18;40.98;99994.34;16095673;19;129688;-49
2023/12/10 01:07:44;;;;;;;12.15;3.15;;;;;;;18.15;41.15;99992.94;16096836;19;131276;-48
2023/12/10 01:13:06;;;;;;;12.02;2.95;;;;;;;18.15;40.80;100009.56;16101436;19;131976;-50
2023/12/10 01:18:28;;;;;;;13.73;2.83;;;;;;;18.14;41.04;100018.97;16094030;19;131229;-46
2023/12/10 01:23:54;;;;;;;10.55;3.00;;;;;;;18.11;41.20;100023.06;16100626;19;131201;-50
2023/12/10 01:29:16;;;;;;;14.25;3.45;;;;;;;18.10;40.71;100037.19;16108398;19;133943;-50
2023/12/10 01:34:38;;;;;;;10.10;2.55;;;;;;;18.09;40.66;100052.94;16109329;19;129950;-46
2023/12/10 01:40:00;;;;;;;10.88;2.60;;;;;;;18.06;40.72;100059.03;16107882;19;131328;-47
2023/12/10 01:45:22;;;;;;;10.50;3.03;;;;;;;18.04;40.96;100055.69;16108553;19;130530;-47
2023/12/10 01:50:44;;;;;;;12.55;2.50;;;;;;;18.04;40.67;100065.91;16106467;19;129403;-45
2023/12/10 01:56:08;;;;;;;9.10;2.40;;;;;;;18.02;40.54;100080.03;16110986;19;129904;-48
2023/12/10 02:01:31;;;;;;;12.70;2.45;;;;;;;18.00;40.37;100082.22;16104327;19;129497;-47
2023/12/10 02:06:53;;;;;;;11.13;2.58;;;;;;;17.98;40.75;100090.78;16102900;19;131037;-49
2023/12/10 02:12:16;;;;;;;7.85;2.28;;;;;;;17.97;40.35;100086.34;16108141;19;131153;-52
2023/12/10 02:17:39;;;;;;;12.88;2.67;;;;;;;17.97;40.70;100115.97;16102709;19;130237;-51
2023/12/10 02:23:07;;;;;;;7.18;2.20;;;;;;;17.95;40.43;100102.38;16104743;19;130463;-48
2023/12/10 02:28:29;;;;;;;8.05;2.20;;;;;;;17.92;40.56;100119.50;16102001;19;129836;-45
2023/12/10 02:33:51;;;;;;;9.43;2.15;;;;;;;17.91;40.09;100128.06;16103386;19;129444;-48
2023/12/10 02:39:13;;;;;;;6.88;2.28;;;;;;;17.89;40.19;100124.72;16102875;19;130919;-45
2023/12/10 02:44:35;;;;;;;6.28;1.85;;;;;;;17.88;40.32;100134.13;16102931;19;130825;-46
2023/12/10 02:49:58;;;;;;;5.57;1.90;;;;;;;17.86;39.97;100145.44;16097081;19;129708;-48
2023/12/10 02:55:20;;;;;;;5.80;1.80;;;;;;;17.84;39.95;100150.41;16103699;19;131536;-49
2023/12/10 03:00:44;;;;;;;5.88;1.90;;;;;;;17.84;39.83;100154.03;16104067;19;130441;-49
2023/12/10 03:06:07;;;;;;;9.02;2.08;;;;;;;17.82;39.81;100181.13;16118025;19;131087;-48
2023/12/10 03:11:29;;;;;;;7.15;1.98;;;;;;;17.81;39.66;100168.38;16115486;19;130094;-50
2023/12/10 03:16:51;;;;;;;7.65;1.98;;;;;;;17.80;40.05;100180.53;16111682;19;129706;-47
2023/12/10 03:22:13;;;;;;;7.97;1.80;;;;;;;17.79;39.73;100198.22;16115738;19;130771;-48
2023/12/10 03:27:35;;;;;;;6.35;2.03;;;;;;;17.78;39.52;100207.63;16112111;19;130876;-48
2023/12/10 03:33:00;;;;;;;6.78;1.88;;;;;;;17.77;39.60;100197.63;16121989;19;129437;-48
2023/12/10 03:38:23;;;;;;;9.23;1.80;;;;;;;17.75;39.48;100219.19;16112657;19;130277;-49
2023/12/10 03:43:45;;;;;;;4.53;1.50;;;;;;;17.75;39.79;100219.19;16111327;19;130028;-52
2023/12/10 03:49:07;;;;;;;11.27;2.13;;;;;;;17.75;39.31;100226.66;16112003;19;129586;-51
2023/12/10 03:54:29;;;;;;;9.52;1.90;;;;;;;17.74;39.71;100236.88;16110089;19;130761;-46
2023/12/10 03:59:51;;;;;;;9.25;2.35;;;;;;;17.73;39.70;100237.97;16114413;19;129693;-52
2023/12/10 04:05:13;;;;;;;8.88;2.25;;;;;;;17.71;39.27;100255.94;16113170;19;130167;-46
2023/12/10 04:10:35;;;;;;;9.75;2.28;;;;;;;17.70;39.57;100252.34;16114692;19;129694;-50
2023/12/10 04:16:00;;;;;;;10.52;1.90;;;;;;;17.69;39.62;100268.09;16115121;19;129933;-49
2023/12/10 04:21:22;;;;;;;8.02;1.92;;;;;;;17.68;39.27;100262.81;16110351;19;130329;-51
2023/12/10 04:26:44;;;;;;;7.32;1.58;;;;;;;17.66;39.38;100282.41;16109242;19;130319;-46
2023/12/10 04:32:06;;;;;;;8.75;2.13;;;;;;;17.66;39.16;100289.91;16113447;19;129396;-46
2023/12/10 04:37:28;;;;;;;12.75;2.58;;;;;;;17.64;39.29;100279.09;16110877;19;129744;-50
2023/12/10 04:42:50;;;;;;;8.32;2.00;;;;;;;17.63;39.36;100291.25;16106798;19;131444;-49
2023/12/10 04:48:13;;;;;;;5.53;1.58;;;;;;;17.63;39.55;100337.41;16104769;19;131394;-47
2023/12/10 04:53:38;;;;;;;9.90;2.35;;;;;;;17.62;39.20;100338.50;16109070;19;133402;-48
2023/12/10 04:59:00;;;;;;;9.27;2.60;;;;;;;17.58;39.30;100329.88;16107893;19;133605;-47
2023/12/10 05:04:22;;;;;;;8.45;2.00;;;;;;;17.59;39.47;100330.75;16103703;19;131427;-47
2023/12/10 05:09:44;;;;;;;6.47;1.73;;;;;;;17.58;39.42;100345.66;16106378;19;129675;-49
2023/12/10 05:15:07;;;;;;;7.28;2.20;;;;;;;17.58;39.36;100340.13;16106627;19;130480;-48
2023/12/10 05:20:30;;;;;;;6.00;1.58;;;;;;;17.57;39.51;100378.00;16102874;19;130724;-47
2023/12/10 05:25:52;;;;;;;8.15;1.98;;;;;;;17.56;39.06;100383.78;16106343;19;129896;-49
2023/12/10 05:31:14;;;;;;;9.30;2.30;;;;;;;17.54;39.25;100401.47;16101671;19;130784;-48
2023/12/10 05:36:36;;;;;;;10.75;2.38;;;;;;;17.54;39.38;100395.06;16107384;19;129987;-51
2023/12/10 05:41:58;;;;;;;6.88;1.80;;;;;;;17.53;38.93;100416.34;16108586;19;130057;-46
2023/12/10 05:47:24;;;;;;;9.13;1.98;;;;;;;17.53;38.99;100410.00;16102795;19;129477;-45
2023/12/10 05:52:46;;;;;;;7.97;2.08;;;;;;;17.53;38.86;100424.66;16105481;19;129958;-45
2023/12/10 05:58:08;;;;;;;6.30;1.73;;;;;;;17.52;39.14;100427.69;16103887;19;131181;-49
2023/12/10 06:03:30;;;;;;;6.40;1.73;;;;;;;17.51;39.13;100442.59;16102133;19;132315;-47
2023/12/10 06:08:52;;;;;;;6.68;1.92;;;;;;;17.50;39.33;100452.81;16103751;19;131375;-51
2023/12/10 06:14:14;;;;;;;6.72;1.75;;;;;;;17.64;39.29;100464.44;16097905;19;131618;-48
2023/12/10 06:19:36;;;;;;;5.43;1.60;;;;;;;17.84;38.63;100455.63;16101014;19;129571;-50
2023/12/10 06:24:59;;;;;;;5.60;1.73;;;;;;;18.09;38.38;100451.53;16100383;19;130010;-50
2023/12/10 06:30:21;;;;;;;5.95;1.65;;;;;;;18.29;38.08;100462.06;16102808;19;130097;-48
2023/12/10 06:35:43;;;;;;;4.47;1.67;;;;;;;18.50;38.18;100484.56;16111354;19;129998;-45
2023/12/10 06:41:06;;;;;;;4.18;1.60;;;;;;;18.65;37.91;100480.31;16118135;19;130754;-54
2023/12/10 06:46:28;;;;;;;5.82;1.60;;;;;;;18.80;37.95;100504.63;16113323;19;129614;-48
2023/12/10 06:51:50;;;;;;;6.03;1.60;;;;;;;18.90;37.58;100504.75;16115226;19;131257;-48
2023/12/10 06:57:12;;;;;;;6.70;1.65;;;;;;;18.97;37.61;100510.09;16112360;19;130241;-47
2023/12/10 07:02:34;;;;;;;6.47;1.63;;;;;;;18.99;37.17;100528.13;16121060;19;131772;-50
2023/12/10 07:07:55;;;;;;;4.70;1.70;;;;;;;19.02;37.17;100552.56;16112411;19;132622;-49
2023/12/10 07:13:17;;;;;;;6.47;1.88;;;;;;;19.11;37.08;100560.44;16116914;19;129817;-51
2023/12/10 07:18:40;;;;;;;6.40;1.63;;;;;;;19.17;37.38;100564.94;16115670;19;129626;-45
2023/12/10 07:24:03;;;;;;;6.70;1.58;;;;;;;19.17;36.89;100581.59;16112370;19;131392;-52
2023/12/10 07:29:26;;;;;;;8.63;2.03;;;;;;;19.12;36.92;100579.59;16106790;19;130614;-52
2023/12/10 07:34:48;;;;;;;13.23;1.90;;;;;;;19.08;37.04;100579.25;16110909;19;131120;-53
2023/12/10 07:40:11;;;;;;;9.77;1.95;;;;;;;19.06;36.88;100598.09;16112478;19;131836;-49
2023/12/10 07:45:33;;;;;;;9.73;2.08;;;;;;;19.02;36.79;100608.03;16109210;19;129891;-51
2023/12/10 07:50:55;;;;;;;7.85;2.00;;;;;;;19.04;36.69;100624.38;16112062;19;129998;-46
2023/12/10 07:56:17;;;;;;;6.35;1.67;;;;;;;19.13;37.03;100620.09;16113387;19;130704;-46
2023/12/10 08:01:40;;;;;;;11.50;2.38;;;;;;;19.28;36.90;100633.34;16115866;19;130691;-54
2023/12/10 08:07:02;;;;;;;6.70;1.85;;;;;;;19.32;36.81;100642.81;16118194;19;129946;-46
2023/12/10 08:12:24;;;;;;;10.35;2.13;;;;;;;19.65;36.62;100645.69;16116014;19;129712;-50
2023/12/10 08:17:46;;;;;;;7.18;1.98;;;;;;;19.91;36.18;100635.72;16106910;19;131077;-50
2023/12/10 08:23:08;;;;;;;5.88;1.75;;;;;;;20.18;36.40;100648.78;16111488;19;130934;-45
2023/12/10 08:28:30;;;;;;;8.20;1.92;;;;;;;20.44;36.12;100649.84;16107128;19;131205;-47
2023/12/10 08:33:52;;;;;;;9.27;1.77;;;;;;;20.48;35.59;100649.31;16110788;19;131159;-47
2023/12/10 08:39:14;;;;;;;10.80;2.22;;;;;;;20.66;35.12;100648.06;16102162;19;130607;-45
2023/12/10 08:44:36;;;;;;;9.55;2.03;;;;;;;20.85;35.10;100657.66;16106201;19;129444;-54
2023/12/10 08:49:58;;;;;;;8.60;2.20;;;;;;;20.80;35.38;100667.91;16106150;19;131293;-49
2023/12/10 08:55:21;;;;;;;12.20;2.33;;;;;;;20.76;35.39;100662.06;16112610;19;134712;-55
2023/12/10 09:00:43;;;;;;;12.02;2.03;;;;;;;20.72;35.86;100660.88;16109249;19;131706;-54
2023/12/10 09:06:05;;;;;;;8.13;1.85;;;;;;;20.75;35.84;100650.06;16111074;19;130056;-52
2023/12/10 09:11:27;;;;;;;14.73;2.45;;;;;;;20.80;35.97;100663.16;16111237;19;130298;-52
2023/12/10 09:16:49;;;;;;;7.13;1.90;;;;;;;20.84;35.88;100669.88;16105670;19;131513;-53
2023/12/10 09:22:12;;;;;;;7.95;2.13;;;;;;;20.87;35.65;100682.41;16106330;19;131784;-52
2023/12/10 09:27:34;;;;;;;7.13;2.10;;;;;;;20.86;35.65;100689.91;16107313;19;132763;-55
2023/12/10 09:32:56;;;;;;;11.85;2.35;;;;;;;20.81;35.68;100692.66;16110111;19;131244;-51
2023/12/10 09:38:18;;;;;;;11.45;1.85;;;;;;;20.73;36.23;100684.78;16110163;19;130648;-54
2023/12/10 09:43:40;;;;;;;10.20;2.22;;;;;;;20.63;36.25;100679.97;16108020;19;132538;-47
2023/12/10 09:49:03;;;;;;;5.07;1.48;;;;;;;20.51;36.66;100671.84;16098851;19;129558;-51
2023/12/10 09:54:25;;;;;;;13.95;3.25;;;;;;;20.38;37.31;100688.94;16094766;19;130733;-52
2023/12/10 09:59:51;;;;;;;41.47;15.27;;;;;;;20.32;37.28;100678.88;16094955;19;131731;-49
2023/12/10 10:05:13;;;;;;;53.25;19.45;;;;;;;20.24;37.79;100666.34;16085444;19;131043;-47
2023/12/10 10:10:35;;;;;;;39.42;17.13;;;;;;;20.18;38.39;100662.66;16079463;19;131049;-49
2023/12/10 10:16:08;;;;;;;72.68;27.08;;;;;;;20.17;38.46;100655.44;16090031;19;131219;-50
2023/12/10 10:21:30;;;;;;;113.78;43.33;;;;;;;20.21;39.36;100664.91;16080934;19;132160;-53
2023/12/10 10:26:53;;;;;;;116.18;47.33;;;;;;;20.21;40.43;100672.41;16092568;19;131116;-50
2023/12/10 10:32:16;;;;;;;126.85;52.97;;;;;;;20.24;41.04;100671.88;16093511;19;131115;-50
2023/12/10 10:37:38;;;;;;;103.80;44.08;;;;;;;20.26;40.47;100653.84;16088334;19;130511;-57
2023/12/10 10:43:00;;;;;;;97.80;37.58;;;;;;;20.29;41.11;100646.91;16085848;19;130815;-50
2023/12/10 10:48:25;;;;;;;93.78;32.42;;;;;;;20.33;41.09;100650.84;16079219;19;132385;-50
2023/12/10 10:53:48;;;;;;;73.85;26.20;;;;;;;20.36;41.51;100652.25;16085578;19;130452;-49
2023/12/10 10:59:30;;;;;;;61.83;22.08;;;;;;;20.37;41.00;100642.81;16080257;19;131380;-54
2023/12/10 11:04:52;;;;;;;62.83;22.73;;;;;;;20.35;40.74;100634.75;16078788;19;130818;-47
2023/12/10 11:10:14;;;;;;;63.40;25.08;;;;;;;20.41;41.28;100628.13;16080913;19;131411;-47
2023/12/10 11:15:36;;;;;;;91.85;36.40;;;;;;;20.47;41.34;100626.22;16091357;19;130683;-46
2023/12/10 11:20:58;;;;;;;147.73;63.13;;;;;;;20.54;42.22;100615.75;16089449;19;130694;-47
2023/12/10 11:26:20;;;;;;;109.50;46.92;;;;;;;20.60;41.99;100609.09;16119747;19;129508;-45
2023/12/10 11:31:46;;;;;;;87.47;36.58;;;;;;;20.60;41.39;100597.16;16101375;19;130762;-48
2023/12/10 11:37:08;;;;;;;;;;;;;;;20.53;41.10;100605.72;16089568;19;131493;-50
2023/12/10 11:42:31;;;;;;;74.47;28.33;;;;;;;20.48;41.27;100605.66;16101897;19;131554;-50
2023/12/10 11:47:55;;;;;;;68.43;24.42;;;;;;;20.43;40.80;100602.88;16112217;19;129752;-49
2023/12/10 11:53:17;;;;;;;60.28;22.80;;;;;;;20.35;41.26;100567.22;16113990;19;131199;-50
2023/12/10 11:58:42;;;;;;;50.88;20.00;;;;;;;20.29;41.06;100585.81;16111404;19;130250;-49
2023/12/10 12:04:04;;;;;;;;;;;;;;;20.20;40.99;100563.22;16111334;19;129844;-48
2023/12/10 12:09:26;;;;;;;38.15;15.15;;;;;;;20.17;40.98;100563.78;16111184;19;130708;-48
2023/12/10 12:14:51;;;;;;;40.78;15.30;;;;;;;20.10;41.10;100555.69;16111356;19;129791;-48
2023/12/10 12:20:22;;;;;;;33.70;13.30;;;;;;;20.04;41.56;100551.16;16113718;19;130434;-49
2023/12/10 12:25:44;;;;;;;35.08;11.70;;;;;;;19.98;41.52;100544.72;16110704;19;129639;-45
2023/12/10 12:31:06;;;;;;;34.85;11.48;;;;;;;19.94;41.74;100534.41;16111206;19;130111;-51
2023/12/10 12:36:28;;;;;;;30.17;10.57;;;;;;;19.98;41.62;100516.13;16108744;19;130679;-46
2023/12/10 12:41:51;;;;;;;32.22;9.35;;;;;;;20.07;41.03;100509.00;16114714;19;129655;-45
2023/12/10 12:47:13;;;;;;;27.20;8.05;;;;;;;20.15;40.96;100524.31;16112550;19;130966;-46
2023/12/10 12:52:35;;;;;;;23.40;8.20;;;;;;;20.24;40.88;100539.38;16115747;19;134059;-49
2023/12/10 12:57:57;;;;;;;18.83;6.82;;;;;;;20.35;40.54;100537.53;16111983;19;130508;-49
2023/12/10 13:03:20;;;;;;;21.00;6.50;;;;;;;20.41;40.11;100521.72;16114689;19;130153;-45
2023/12/10 13:08:42;;;;;;;19.10;6.07;;;;;;;20.47;39.94;100526.19;16111664;19;130470;-46
2023/12/10 13:14:04;;;;;;;17.08;5.43;;;;;;;20.53;39.73;100529.84;16110562;19;129334;-45
2023/12/10 13:19:26;;;;;;;17.17;4.80;;;;;;;20.55;39.66;100531.25;16101851;19;130580;-49
2023/12/10 13:24:48;;;;;;;14.05;5.07;;;;;;;20.56;39.42;100516.22;16102604;19;130605;-48
2023/12/10 13:30:11;;;;;;;16.23;5.18;;;;;;;20.53;39.74;100504.81;16111862;19;132816;-45
2023/12/10 13:35:33;;;;;;;19.75;4.57;;;;;;;20.50;40.08;100494.25;16107218;19;130857;-46
2023/12/10 13:40:58;;;;;;;15.73;4.20;;;;;;;20.42;40.20;100484.50;16111714;19;129832;-47
2023/12/10 13:46:20;;;;;;;15.75;4.65;;;;;;;20.34;40.20;100471.09;16112063;19;129892;-48
2023/12/10 13:51:42;;;;;;;15.55;4.47;;;;;;;20.26;39.96;100464.97;16106526;19;130997;-47
2023/12/10 13:57:04;;;;;;;14.05;4.00;;;;;;;20.20;40.13;100449.34;16107730;19;129903;-48
2023/12/10 14:02:29;;;;;;;16.92;3.53;;;;;;;20.14;40.52;100428.22;16094949;19;131797;-49
2023/12/10 14:07:51;;;;;;;14.35;4.22;;;;;;;20.05;40.65;100422.34;16103335;19;130172;-47
2023/12/10 14:13:13;;;;;;;21.27;3.95;;;;;;;19.98;40.75;100433.66;16106039;19;131135;-47
2023/12/10 14:18:35;;;;;;;15.73;3.38;;;;;;;19.90;40.56;100389.75;16106492;19;134662;-49
2023/12/10 14:23:58;;;;;;;14.38;3.60;;;;;;;19.85;40.32;100398.03;16106302;19;129376;-47
2023/12/10 14:29:20;;;;;;;13.77;3.60;;;;;;;19.89;40.41;100404.72;16107637;19;130950;-49
2023/12/10 14:34:43;;;;;;;18.15;3.90;;;;;;;20.00;40.03;100358.44;16103322;19;130286;-51
2023/12/10 14:40:05;;;;;;;23.65;4.13;;;;;;;20.12;39.83;100378.50;16102755;19;129930;-44
2023/12/10 14:45:27;;;;;;;15.73;3.42;;;;;;;20.23;39.52;100345.25;16101174;19;129900;-45
2023/12/10 14:50:49;;;;;;;21.25;3.97;;;;;;;20.33;39.24;100313.84;16092277;19;129450;-49
2023/12/10 14:56:12;;;;;;;19.45;3.88;;;;;;;20.35;39.36;100367.22;16098075;19;131179;-49
2023/12/10 15:01:34;;;;;;;18.17;3.78;;;;;;;20.34;39.32;100344.16;16112232;19;130934;-45
2023/12/10 15:06:56;;;;;;;23.60;3.97;;;;;;;20.27;39.31;100302.75;16117977;19;131127;-53
2023/12/10 15:12:18;;;;;;;14.18;2.85;;;;;;;20.22;39.25;100276.91;16116449;19;130894;-48
2023/12/10 15:17:42;;;;;;;13.70;3.30;;;;;;;20.21;39.30;100245.50;16118771;19;129809;-50
2023/12/10 15:23:06;;;;;;;9.55;2.70;;;;;;;20.21;39.50;100228.84;16111409;19;130621;-48
2023/12/10 15:28:28;;;;;;;9.18;2.90;;;;;;;20.29;39.32;100252.47;16103224;19;132029;-51
2023/12/10 15:33:50;;;;;;;11.18;2.97;;;;;;;20.38;39.49;100211.09;16118362;19;129860;-51
2023/12/10 15:39:13;;;;;;;14.05;2.97;;;;;;;20.47;40.08;100216.94;16115085;19;130238;-46
2023/12/10 15:44:35;;;;;;;16.63;3.03;;;;;;;20.54;39.69;100210.03;16117104;19;129546;-50
2023/12/10 15:49:57;;;;;;;9.57;2.35;;;;;;;20.59;40.19;100218.34;16119497;19;130972;-45
2023/12/10 15:55:19;;;;;;;6.35;2.03;;;;;;;20.62;40.20;100202.22;16111271;19;129859;-53
2023/12/10 16:00:42;;;;;;;8.30;2.53;;;;;;;20.59;40.50;100096.06;16114195;19;130724;-49
2023/12/10 16:06:05;;;;;;;10.20;2.67;;;;;;;20.55;40.23;100094.97;16109809;19;130758;-53
2023/12/10 16:11:27;;;;;;;8.82;2.55;;;;;;;20.51;39.98;100070.78;16113418;19;132799;-45
2023/12/10 16:16:49;;;;;;;13.48;2.88;;;;;;;20.45;40.56;100047.72;16113014;19;130035;-49
2023/12/10 16:22:11;;;;;;;16.08;3.50;;;;;;;20.39;40.69;100012.75;16112061;19;129433;-50
2023/12/10 16:27:33;;;;;;;7.88;2.78;;;;;;;20.33;40.69;99997.19;16114123;19;130287;-51
2023/12/10 16:32:55;;;;;;;21.23;6.35;;;;;;;20.27;41.27;99994.44;16100641;19;134862;-51
2023/12/10 16:38:17;;;;;;;30.38;11.02;;;;;;;20.23;41.61;99979.44;16089366;19;130773;-51
2023/12/10 16:43:39;;;;;;;40.55;15.70;;;;;;;20.20;41.73;99955.00;16104976;19;129817;-52
2023/12/10 16:49:10;;;;;;;48.97;18.80;;;;;;;20.18;42.07;99937.81;16105387;19;131134;-48
2023/12/10 16:54:32;;;;;;;57.47;21.33;;;;;;;20.19;42.34;99925.56;16111926;19;130575;-50
2023/12/10 16:59:55;;;;;;;50.65;22.02;;;;;;;20.27;42.49;99905.56;16111191;19;130038;-46
2023/12/10 17:05:17;;;;;;;50.05;20.05;;;;;;;20.43;42.14;99902.75;16108517;19;130270;-49
2023/12/10 17:10:39;;;;;;;50.95;19.67;;;;;;;20.64;42.00;99908.22;16112531;19;129478;-47
2023/12/10 17:16:01;;;;;;;51.80;20.88;;;;;;;20.84;41.96;99891.44;16111543;19;129528;-50
2023/12/10 17:21:23;;;;;;;48.53;19.65;;;;;;;21.02;41.72;99880.78;16106597;19;130033;-49
2023/12/10 17:26:45;;;;;;;45.03;17.98;;;;;;;21.09;41.10;99864.59;16110457;19;131914;-51
2023/12/10 17:32:07;;;;;;;40.85;18.13;;;;;;;21.13;41.42;99857.34;16109868;19;129604;-50
2023/12/10 17:37:29;;;;;;;40.08;15.93;;;;;;;21.12;41.17;99849.28;16107070;19;130290;-49
2023/12/10 17:42:52;;;;;;;41.10;13.85;;;;;;;21.05;40.77;99830.97;16116572;19;130819;-50
2023/12/10 17:48:15;;;;;;;33.38;13.77;;;;;;;21.00;40.84;99849.66;16125503;19;129281;-56
2023/12/10 17:53:37;;;;;;;35.05;13.05;;;;;;;20.94;40.87;99843.31;16132023;19;130859;-46
2023/12/10 17:59:00;;;;;;;30.65;11.40;;;;;;;20.91;41.16;99852.22;16124164;19;130374;-48
2023/12/10 18:04:22;;;;;;;27.55;11.32;;;;;;;20.86;40.98;99849.47;16123119;19;130077;-52
2023/12/10 18:09:44;;;;;;;25.77;8.90;;;;;;;20.81;40.98;99855.88;16128751;19;130808;-49
2023/12/10 18:15:08;;;;;;;22.08;6.82;;;;;;;20.73;40.20;99845.34;16115990;19;130790;-52
2023/12/10 18:20:30;;;;;;;16.10;6.90;;;;;;;20.67;40.49;99852.06;16127635;19;129765;-53
2023/12/10 18:25:52;;;;;;;17.63;6.97;;;;;;;20.64;40.57;99853.44;16129508;19;129645;-51
2023/12/10 18:31:14;;;;;;;16.58;5.57;;;;;;;20.62;40.73;99849.31;16138358;19;129388;-51
2023/12/10 18:36:36;;;;;;;15.93;5.47;;;;;;;20.58;40.84;99860.97;16140683;19;129419;-49
2023/12/10 18:41:58;;;;;;;18.05;5.55;;;;;;;20.53;40.68;99854.63;16132044;19;130496;-46
2023/12/10 18:47:20;;;;;;;20.15;5.70;;;;;;;20.50;41.16;99847.69;16134662;19;129430;-51
2023/12/10 18:52:42;;;;;;;18.23;4.93;;;;;;;20.47;41.04;99875.22;16135014;19;129208;-49
2023/12/10 18:58:04;;;;;;;13.27;5.20;;;;;;;20.40;40.80;99862.44;16137783;19;129627;-46
2023/12/10 19:03:29;;;;;;;12.90;4.55;;;;;;;20.35;40.96;99867.19;16138264;19;130695;-46
2023/12/10 19:08:52;;;;;;;;;;;;;;;20.22;41.59;99866.69;16136856;19;130782;-47
2023/12/10 19:14:14;;;;;;;14.85;3.90;;;;;;;20.19;41.38;99863.66;16139283;19;129921;-49
2023/12/10 19:19:39;;;;;;;17.38;4.10;;;;;;;20.12;41.23;99870.31;16136708;19;129727;-45
2023/12/10 19:25:02;;;;;;;8.82;3.40;;;;;;;20.09;41.32;99867.28;16135068;19;130815;-47
2023/12/10 19:30:24;;;;;;;10.18;3.17;;;;;;;20.07;41.62;99861.19;16135617;19;130269;-48
2023/12/10 19:35:47;;;;;;;10.40;2.97;;;;;;;20.06;41.15;99860.38;16126860;19;129057;-45
2023/12/10 19:41:13;;;;;;;7.78;2.72;;;;;;;20.07;41.67;99862.03;16115715;19;131702;-51
2023/12/10 19:46:35;;;;;;;8.85;2.65;;;;;;;20.06;41.63;99867.88;16128021;19;130450;-48
2023/12/10 19:51:57;;;;;;;5.35;2.30;;;;;;;20.05;41.65;99868.97;16126626;19;131088;-51
2023/12/10 19:57:19;;;;;;;9.82;1.70;;;;;;;20.03;41.77;99874.81;16125479;19;130910;-50
2023/12/10 20:02:41;;;;;;;11.80;2.08;;;;;;;20.05;42.43;99869.81;16127913;19;129251;-46
2023/12/10 20:08:04;;;;;;;10.70;2.03;;;;;;;20.07;42.45;99863.94;16124968;19;131639;-48
2023/12/10 20:13:27;;;;;;;11.73;2.13;;;;;;;20.08;42.72;99882.28;16114872;19;129646;-48
2023/12/10 20:18:49;;;;;;;9.85;2.35;;;;;;;20.10;42.60;99885.63;16114415;19;130622;-50
2023/12/10 20:24:12;;;;;;;9.07;2.17;;;;;;;20.10;42.74;99888.38;16116743;19;131902;-45
2023/12/10 20:29:51;;;;;;;6.55;1.58;;;;;;;20.09;42.58;99903.38;16119025;19;129718;-47
2023/12/10 20:35:13;;;;;;;8.52;2.35;;;;;;;20.10;42.65;99886.47;16118513;19;130827;-47
2023/12/10 20:40:35;;;;;;;5.43;1.50;;;;;;;20.10;42.97;99905.91;16110215;19;130871;-49
2023/12/10 20:45:58;;;;;;;6.28;1.92;;;;;;;20.11;43.20;99907.56;16117495;19;130155;-46
2023/12/10 20:51:22;;;;;;;6.25;1.58;;;;;;;20.10;42.79;99914.22;16114084;19;129962;-46
2023/12/10 20:56:44;;;;;;;5.82;1.70;;;;;;;20.12;43.36;99905.59;16112142;19;129465;-46
2023/12/10 21:02:07;;;;;;;6.25;1.85;;;;;;;20.12;43.34;99919.50;16112620;19;131257;-46
2023/12/10 21:07:28;;;;;;;5.30;1.60;;;;;;;20.13;42.97;99923.94;16112239;19;130614;-46
2023/12/10 21:12:53;;;;;;;8.20;1.85;;;;;;;20.13;43.26;99927.53;16110047;19;129560;-47
2023/12/10 21:18:16;;;;;;;5.65;1.77;;;;;;;20.06;43.13;99934.50;16117905;19;130257;-51
2023/12/10 21:23:39;;;;;;;6.00;1.63;;;;;;;19.98;42.37;99935.88;16107691;19;131251;-50
2023/12/10 21:29:02;;;;;;;6.05;1.60;;;;;;;19.92;42.52;99943.38;16109455;19;130935;-49
2023/12/10 21:34:24;;;;;;;4.68;1.73;;;;;;;19.86;42.52;99944.47;16105300;19;131543;-48
2023/12/10 21:39:46;;;;;;;9.52;1.60;;;;;;;19.80;42.38;99935.31;16107981;19;129699;-49
2023/12/10 21:45:09;;;;;;;4.15;1.50;;;;;;;19.74;42.42;99947.56;16104719;19;130313;-49
2023/12/10 21:50:31;;;;;;;7.95;1.70;;;;;;;19.66;42.76;99954.47;16108344;19;130339;-48
2023/12/10 21:55:53;;;;;;;6.65;1.30;;;;;;;19.61;42.59;99964.75;16106709;19;130134;-46
2023/12/10 22:01:15;;;;;;;7.15;2.10;;;;;;;19.56;42.62;99971.13;16109323;19;129535;-52
2023/12/10 22:06:42;;;;;;;6.50;1.77;;;;;;;19.50;42.45;99975.00;16107261;19;129538;-45
2023/12/10 22:12:04;;;;;;;6.80;1.90;;;;;;;19.46;42.80;99973.88;16105524;19;130642;-49
2023/12/10 22:17:26;;;;;;;7.10;2.10;;;;;;;19.40;42.79;99974.97;16108698;19;130224;-47
2023/12/10 22:22:49;;;;;;;7.53;1.88;;;;;;;19.35;42.79;99967.50;16107997;19;131387;-52
2023/12/10 22:28:11;;;;;;;6.60;1.70;;;;;;;19.31;42.70;99972.75;16111024;19;131491;-46
2023/12/10 22:33:33;;;;;;;8.25;2.15;;;;;;;19.28;42.88;99956.66;16105108;19;130446;-46
2023/12/10 22:38:55;;;;;;;5.68;1.63;;;;;;;19.25;43.01;99953.59;16106830;19;132815;-48
2023/12/10 22:44:18;;;;;;;4.03;1.30;;;;;;;19.23;42.68;99962.19;16108443;19;132581;-50
2023/12/10 22:49:40;;;;;;;5.60;1.63;;;;;;;19.21;42.90;99964.38;16107635;19;129569;-51
2023/12/10 22:55:08;;;;;;;8.27;2.35;;;;;;;19.19;42.93;99972.16;16104362;19;130976;-49
2023/12/10 23:00:30;;;;;;;7.43;1.88;;;;;;;19.17;42.54;99985.44;16106664;19;129736;-48
2023/12/10 23:05:52;;;;;;;5.50;1.60;;;;;;;19.14;42.64;99985.97;16106095;19;129819;-48
2023/12/10 23:11:14;;;;;;;4.25;1.60;;;;;;;19.13;42.59;99976.00;16102333;19;129871;-48
2023/12/10 23:16:40;;;;;;;6.38;1.90;;;;;;;19.11;42.89;99978.19;16110189;19;129909;-50
2023/12/10 23:22:02;;;;;;;5.38;1.40;;;;;;;19.08;42.95;99983.19;16119195;19;131391;-52
2023/12/10 23:27:24;;;;;;;4.85;1.70;;;;;;;19.05;42.72;99980.97;16118391;19;131088;-49
2023/12/10 23:32:46;;;;;;;7.45;1.80;;;;;;;19.04;43.04;99979.31;16116989;19;129344;-47
2023/12/10 23:38:09;;;;;;;7.45;2.05;;;;;;;19.02;42.92;99970.44;16118138;19;129480;-51
2023/12/10 23:43:31;;;;;;;6.65;2.00;;;;;;;18.99;42.90;99970.97;16120985;19;129705;-48
2023/12/10 23:48:53;;;;;;;6.03;1.90;;;;;;;18.97;42.71;99958.50;16117618;19;130150;-51
2023/12/10 23:54:15;;;;;;;6.80;2.17;;;;;;;18.96;42.85;99952.09;16116950;19;129663;-50
2023/12/10 23:59:36;;;;;;;6.05;1.73;;;;;;;18.93;42.65;99955.44;16119212;19;129827;-50
